createdAt,value
2023-03-28T00:01:54.848Z,99349.03
2023-03-28T00:04:30.149Z,99351.31
2023-03-28T00:07:02.134Z,99352.22
2023-03-28T00:09:35.144Z,99351.13
2023-03-28T00:12:07.145Z,99355.09
2023-03-28T00:14:39.722Z,99356.84
2023-03-28T00:17:12.416Z,99356.84
2023-03-28T00:19:47.330Z,99362.75
2023-03-28T00:22:20.755Z,99361.00
2023-03-28T00:24:53.898Z,99358.78
2023-03-28T00:27:26.171Z,99368.06
2023-03-28T00:29:59.168Z,99361.28
2023-03-28T00:32:31.436Z,99367.03
2023-03-28T00:35:04.847Z,99370.13
2023-03-28T00:37:36.715Z,99377.16
2023-03-28T00:40:10.012Z,99373.56
2023-03-28T00:42:42.813Z,99372.81
2023-03-28T00:45:15.533Z,99370.75
2023-03-28T00:47:47.736Z,99377.63
2023-03-28T00:50:30.802Z,99377.13
2023-03-28T00:53:10.504Z,99375.50
2023-03-28T00:55:52.563Z,99378.53
2023-03-28T00:58:27.994Z,99372.88
2023-03-28T01:01:00.748Z,99373.22
2023-03-28T01:03:35.798Z,99370.00
2023-03-28T01:06:14.176Z,99377.28
2023-03-28T01:08:47.179Z,99378.34
2023-03-28T01:11:21.698Z,99388.00
2023-03-28T01:13:56.221Z,99383.94
2023-03-28T01:16:34.195Z,99382.31
2023-03-28T01:19:38.997Z,99368.88
2023-03-28T01:22:36.708Z,99370.94
2023-03-28T01:25:34.646Z,99373.09
2023-03-28T01:28:57.985Z,99370.50
2023-03-28T01:31:58.333Z,99376.47
2023-03-28T01:38:54.649Z,99381.34
2023-03-28T01:41:34.771Z,99380.09
2023-03-28T01:44:21.113Z,99373.72
2023-03-28T01:47:00.541Z,99378.84
2023-03-28T01:50:03.882Z,99369.47
2023-03-28T01:53:03.404Z,99374.03
2023-03-28T01:55:54.346Z,99373.13
2023-03-28T01:58:51.422Z,99369.94
2023-03-28T02:01:47.681Z,99368.38
2023-03-28T02:04:23.976Z,99369.41
2023-03-28T02:07:05.750Z,99361.91
2023-03-28T02:09:47.803Z,99363.03
2023-03-28T02:12:37.803Z,99363.16
2023-03-28T02:15:17.981Z,99366.13
2023-03-28T02:18:32.090Z,99356.72
2023-03-28T02:21:34.499Z,99369.75
2023-03-28T02:24:13.166Z,99363.75
2023-03-28T02:27:09.101Z,99357.31
2023-03-28T02:29:49.705Z,99351.63
2023-03-28T02:32:24.628Z,99341.00
2023-03-28T02:34:56.487Z,99340.47
2023-03-28T02:38:20.122Z,99342.47
2023-03-28T02:41:37.690Z,99344.75
2023-03-28T02:44:27.032Z,99344.28
2023-03-28T02:47:27.172Z,99336.84
2023-03-28T02:50:30.463Z,99337.63
2023-03-28T02:53:22.682Z,99329.25
2023-03-28T02:56:19.607Z,99329.25
2023-03-28T02:59:30.991Z,99330.28
2023-03-28T03:02:04.830Z,99325.97
2023-03-28T03:04:37.701Z,99317.84
2023-03-28T03:07:09.968Z,99326.19
2023-03-28T03:09:46.028Z,99321.66
2023-03-28T03:12:17.962Z,99325.50
2023-03-28T03:14:51.548Z,99320.06
2023-03-28T03:17:44.687Z,99318.59
2023-03-28T03:20:17.892Z,99321.19
2023-03-28T03:22:57.039Z,99315.06
2023-03-28T03:25:31.219Z,99318.97
2023-03-28T03:28:17.476Z,99320.97
2023-03-28T03:30:52.871Z,99310.22
2023-03-28T03:33:33.043Z,99314.94
2023-03-28T03:36:12.650Z,99313.59
2023-03-28T03:38:47.884Z,99318.34
2023-03-28T03:41:25.620Z,99314.94
2023-03-28T03:43:58.332Z,99310.44
2023-03-28T03:46:35.723Z,99310.31
2023-03-28T03:49:10.271Z,99314.03
2023-03-28T03:51:43.145Z,99313.91
2023-03-28T03:54:20.739Z,99314.94
2023-03-28T03:56:52.704Z,99318.09
2023-03-28T03:59:25.835Z,99320.69
2023-03-28T04:02:01.472Z,99322.81
2023-03-28T04:04:45.746Z,99319.97
2023-03-28T04:07:41.602Z,99327.75
2023-03-28T04:10:20.252Z,99328.84
2023-03-28T04:12:53.427Z,99328.69
2023-03-28T04:15:26.056Z,99328.75
2023-03-28T04:21:03.285Z,99342.50
2023-03-28T04:23:44.046Z,99340.00
2023-03-28T04:26:39.590Z,99343.34
2023-03-28T04:29:19.827Z,99343.16
2023-03-28T04:32:13.920Z,99352.97
2023-03-28T04:35:18.737Z,99354.88
2023-03-28T04:37:57.832Z,99352.41
2023-03-28T04:40:31.352Z,99342.09
2023-03-28T04:43:18.320Z,99337.16
2023-03-28T04:45:59.007Z,99342.59
2023-03-28T04:48:31.649Z,99344.56
2023-03-28T04:51:04.130Z,99343.41
2023-03-28T04:53:38.043Z,99345.09
2023-03-28T04:56:33.535Z,99345.66
2023-03-28T04:59:06.474Z,99354.41
2023-03-28T05:01:39.380Z,99352.16
2023-03-28T05:04:31.844Z,99355.59
2023-03-28T05:07:08.781Z,99351.06
2023-03-28T05:09:41.495Z,99358.06
2023-03-28T05:12:13.934Z,99361.47
2023-03-28T05:15:06.325Z,99372.34
2023-03-28T05:17:46.904Z,99370.13
2023-03-28T05:20:34.275Z,99374.13
2023-03-28T05:23:07.650Z,99376.72
2023-03-28T05:25:44.090Z,99373.03
2023-03-28T05:28:17.456Z,99379.41
2023-03-28T05:30:55.570Z,99377.91
2023-03-28T05:33:32.739Z,99374.56
2023-03-28T05:36:09.873Z,99384.81
2023-03-28T05:38:42.824Z,99384.47
2023-03-28T05:41:22.701Z,99390.94
2023-03-28T05:43:54.973Z,99379.69
2023-03-28T05:46:42.401Z,99390.47
2023-03-28T05:49:15.221Z,99380.63
2023-03-28T05:51:48.339Z,99388.97
2023-03-28T05:54:20.579Z,99393.25
2023-03-28T05:56:53.709Z,99398.06
2023-03-28T05:59:30.698Z,99396.25
2023-03-28T06:02:04.960Z,99391.56
2023-03-28T06:04:37.570Z,99388.78
2023-03-28T06:07:14.305Z,99385.31
2023-03-28T06:09:46.845Z,99394.13
2023-03-28T06:12:22.439Z,99393.94
2023-03-28T06:14:57.577Z,99395.44
2023-03-28T06:17:35.939Z,99399.28
2023-03-28T06:20:11.089Z,99398.72
2023-03-28T06:22:44.068Z,99404.03
2023-03-28T06:25:17.353Z,99404.38
2023-03-28T06:27:50.193Z,99408.22
2023-03-28T06:30:22.753Z,99415.56
2023-03-28T06:32:58.003Z,99414.34
2023-03-28T06:35:30.172Z,99415.84
2023-03-28T06:38:04.189Z,99413.81
2023-03-28T06:40:36.327Z,99411.75
2023-03-28T06:43:09.715Z,99411.00
2023-03-28T06:45:51.564Z,99406.50
2023-03-28T06:48:30.364Z,99408.75
2023-03-28T06:51:22.286Z,99404.31
2023-03-28T06:53:56.530Z,99405.56
2023-03-28T06:56:33.569Z,99404.56
2023-03-28T06:59:07.793Z,99403.78
2023-03-28T07:01:41.436Z,99394.25
2023-03-28T07:04:20.109Z,99395.19
2023-03-28T07:06:52.494Z,99404.16
2023-03-28T07:09:49.421Z,99398.72
2023-03-28T07:12:21.609Z,99399.78
2023-03-28T07:17:50.045Z,99388.78
2023-03-28T07:20:23.755Z,99396.88
2023-03-28T07:23:00.867Z,99394.16
2023-03-28T07:25:35.649Z,99398.66
2023-03-28T07:28:08.801Z,99401.88
2023-03-28T07:30:42.020Z,99402.41
2023-03-28T07:33:38.476Z,99409.81
2023-03-28T07:36:21.092Z,99410.81
2023-03-28T07:39:03.766Z,99409.63
2023-03-28T07:41:37.002Z,99419.47
2023-03-28T07:44:31.169Z,99418.66
2023-03-28T07:47:03.993Z,99403.59
2023-03-28T07:49:37.532Z,99397.41
2023-03-28T07:52:10.560Z,99400.69
2023-03-28T07:54:42.716Z,99408.19
2023-03-28T07:57:15.726Z,99407.16
2023-03-28T08:00:13.641Z,99402.94
2023-03-28T08:03:04.842Z,99401.41
2023-03-28T08:05:38.239Z,99402.06
2023-03-28T08:08:12.708Z,99405.25
2023-03-28T08:10:52.426Z,99418.72
2023-03-28T08:13:26.339Z,99419.03
2023-03-28T08:16:05.888Z,99420.25
2023-03-28T08:18:38.735Z,99422.72
2023-03-28T08:21:13.129Z,99411.50
2023-03-28T08:23:45.577Z,99416.34
2023-03-28T08:26:38.184Z,99415.97
2023-03-28T08:29:10.077Z,99418.81
2023-03-28T08:31:44.902Z,99412.56
2023-03-28T08:34:19.113Z,99399.34
2023-03-28T08:36:51.952Z,99398.41
2023-03-28T08:39:30.806Z,99404.09
2023-03-28T08:43:11.969Z,99411.75
2023-03-28T08:46:05.201Z,99414.94
2023-03-28T08:48:45.387Z,99390.16
2023-03-28T08:51:44.389Z,99402.00
2023-03-28T08:54:37.703Z,99403.31
2023-03-28T08:57:20.276Z,99393.50
2023-03-28T09:00:17.156Z,99400.06
2023-03-28T09:02:52.807Z,99390.50
2023-03-28T09:05:27.724Z,99391.53
2023-03-28T09:08:43.114Z,99391.75
2023-03-28T09:11:49.107Z,99374.59
2023-03-28T09:14:28.191Z,99376.44
2023-03-28T09:17:35.244Z,99383.28
2023-03-28T09:20:17.711Z,99401.47
2023-03-28T09:23:44.487Z,99404.13
2023-03-28T09:26:40.670Z,99400.91
2023-03-28T09:29:25.354Z,99395.50
2023-03-28T09:32:04.584Z,99381.53
2023-03-28T09:34:53.649Z,99387.53
2023-03-28T09:37:40.886Z,99386.13
2023-03-28T09:40:23.570Z,99385.44
2023-03-28T09:43:36.458Z,99372.56
2023-03-28T09:46:32.811Z,99379.53
2023-03-28T09:49:28.252Z,99384.50
2023-03-28T09:52:34.268Z,99392.84
2023-03-28T09:55:20.573Z,99365.88
2023-03-28T09:58:11.597Z,99366.91
2023-03-28T10:01:27.552Z,99353.03
2023-03-28T10:04:38.970Z,99361.38
2023-03-28T10:07:31.748Z,99354.66
2023-03-28T10:10:25.150Z,99350.31
2023-03-28T10:13:05.896Z,99348.66
2023-03-28T10:15:53.262Z,99357.66
2023-03-28T10:18:58.164Z,99357.59
2023-03-28T10:21:48.950Z,99350.28
2023-03-28T10:24:26.101Z,99327.13
2023-03-28T10:27:25.619Z,99333.78
2023-03-28T10:30:27.959Z,99333.03
2023-03-28T10:33:27.074Z,99331.69
2023-03-28T10:36:34.484Z,99337.66
2023-03-28T10:39:29.112Z,99335.44
2023-03-28T10:42:22.911Z,99342.25
2023-03-28T10:45:05.665Z,99342.19
2023-03-28T10:47:42.028Z,99348.31
2023-03-28T10:50:47.221Z,99343.47
2023-03-28T10:53:23.244Z,99348.78
2023-03-28T10:56:06.690Z,99341.31
2023-03-28T10:59:11.690Z,99340.50
2023-03-28T11:01:56.015Z,99317.16
2023-03-28T11:04:50.379Z,99321.84
2023-03-28T11:07:23.018Z,99315.84
2023-03-28T11:10:30.984Z,99327.75
2023-03-28T11:13:45.454Z,99310.53
2023-03-28T11:16:32.860Z,99317.13
2023-03-28T11:19:44.176Z,99312.28
2023-03-28T11:22:35.930Z,99312.44
2023-03-28T11:25:36.403Z,99302.88
2023-03-28T11:28:49.930Z,99302.78
2023-03-28T11:31:59.209Z,99305.13
2023-03-28T11:34:41.528Z,99288.41
2023-03-28T11:37:23.330Z,99291.25
2023-03-28T11:40:07.535Z,99288.50
2023-03-28T11:43:07.219Z,99288.44
2023-03-28T11:45:52.629Z,99286.50
2023-03-28T11:48:41.349Z,99277.31
2023-03-28T11:51:38.395Z,99267.97
2023-03-28T11:54:17.267Z,99248.06
2023-03-28T11:57:13.049Z,99251.56
2023-03-28T12:00:32.203Z,99246.06
2023-03-28T12:03:31.038Z,99230.28
2023-03-28T12:06:25.055Z,99228.88
2023-03-28T12:09:24.391Z,99232.75
2023-03-28T12:12:13.783Z,99220.84
2023-03-28T12:15:17.204Z,99202.44
2023-03-28T12:18:25.158Z,99209.69
2023-03-28T12:21:23.606Z,99213.59
2023-03-28T12:24:14.547Z,99218.88
2023-03-28T12:26:59.933Z,99215.38
2023-03-28T12:29:59.349Z,99214.59
2023-03-28T12:33:04.992Z,99206.69
2023-03-28T12:35:56.374Z,99212.47
2023-03-28T12:38:43.228Z,99198.59
2023-03-28T12:41:39.287Z,99207.63
2023-03-28T12:44:29.169Z,99195.56
2023-03-28T12:47:16.245Z,99175.84
2023-03-28T12:53:11.650Z,99177.66
2023-03-28T12:55:51.592Z,99179.59
2023-03-28T12:58:34.547Z,99174.34
2023-03-28T13:01:36.124Z,99163.03
2023-03-28T13:04:37.753Z,99147.38
2023-03-28T13:07:41.604Z,99153.75
2023-03-28T13:10:46.924Z,99153.56
2023-03-28T13:13:28.518Z,99155.59
2023-03-28T13:16:23.858Z,99138.72
2023-03-28T13:19:18.478Z,99148.78
2023-03-28T13:22:00.285Z,99145.44
2023-03-28T13:24:36.449Z,99146.50
2023-03-28T13:27:14.679Z,99151.72
2023-03-28T13:29:51.078Z,99137.44
2023-03-28T13:32:24.948Z,99133.44
2023-03-28T13:35:02.918Z,99125.44
2023-03-28T13:37:43.739Z,99127.44
2023-03-28T13:40:48.230Z,99119.56
2023-03-28T13:43:51.503Z,99123.63
2023-03-28T13:46:39.373Z,99113.81
2023-03-28T13:49:18.313Z,99112.44
2023-03-28T13:52:22.251Z,99092.84
2023-03-28T13:55:02.633Z,99091.69
2023-03-28T13:57:36.106Z,99089.00
2023-03-28T14:00:18.425Z,99090.34
2023-03-28T14:03:00.742Z,99088.22
2023-03-28T14:05:34.828Z,99080.25
2023-03-28T14:08:15.991Z,99086.88
2023-03-28T14:10:52.210Z,99083.59
2023-03-28T14:13:28.755Z,99087.53
2023-03-28T14:16:01.197Z,99082.84
2023-03-28T14:18:42.180Z,99073.75
2023-03-28T14:21:16.731Z,99083.00
2023-03-28T14:24:04.244Z,99071.50
2023-03-28T14:26:37.589Z,99057.72
2023-03-28T14:29:17.397Z,99052.47
2023-03-28T14:31:50.653Z,99049.25
2023-03-28T14:34:27.044Z,99041.34
2023-03-28T14:37:15.731Z,99037.94
2023-03-28T14:39:47.648Z,99027.94
2023-03-28T14:42:22.739Z,99017.97
2023-03-28T14:44:55.283Z,99025.38
2023-03-28T14:47:34.061Z,99025.41
2023-03-28T14:50:08.192Z,99017.56
2023-03-28T14:52:41.405Z,99021.53
2023-03-28T14:55:24.404Z,99028.13
2023-03-28T14:57:59.018Z,99018.78
2023-03-28T15:00:38.789Z,99015.44
2023-03-28T15:03:16.610Z,99012.78
2023-03-28T15:05:52.008Z,99012.78
2023-03-28T15:08:39.089Z,98999.91
2023-03-28T15:11:20.128Z,99009.88
2023-03-28T15:14:04.926Z,98993.41
2023-03-28T15:16:41.255Z,98989.47
2023-03-28T15:19:22.628Z,98988.84
2023-03-28T15:22:10.391Z,98991.56
2023-03-28T15:24:44.685Z,98990.94
2023-03-28T15:27:32.795Z,98984.88
2023-03-28T15:30:13.439Z,98986.81
2023-03-28T15:32:46.337Z,98997.44
2023-03-28T15:35:29.823Z,98993.41
2023-03-28T15:38:18.685Z,98986.03
2023-03-28T15:40:59.781Z,98990.69
2023-03-28T15:44:27.776Z,98978.16
2023-03-28T15:47:09.042Z,98975.94
2023-03-28T15:49:41.589Z,98972.06
2023-03-28T15:52:19.998Z,98976.81
2023-03-28T15:54:53.564Z,98970.91
2023-03-28T15:57:29.421Z,98963.47
2023-03-28T16:00:01.884Z,98966.66
2023-03-28T16:02:44.222Z,98962.88
2023-03-28T16:05:16.522Z,98964.91
2023-03-28T16:07:54.210Z,98958.25
2023-03-28T16:10:28.896Z,98964.31
2023-03-28T16:13:19.988Z,98957.72
2023-03-28T16:16:30.325Z,98955.78
2023-03-28T16:19:25.066Z,98941.22
2023-03-28T16:22:00.527Z,98951.84
2023-03-28T16:24:34.624Z,98946.53
2023-03-28T16:27:07.689Z,98947.72
2023-03-28T16:29:39.997Z,98944.41
2023-03-28T16:32:16.522Z,98946.28
2023-03-28T16:34:48.825Z,98943.66
2023-03-28T16:37:22.061Z,98933.66
2023-03-28T16:39:54.024Z,98932.91
2023-03-28T16:42:28.306Z,98932.91
2023-03-28T16:45:00.537Z,98931.59
2023-03-28T16:47:33.461Z,98933.63
2023-03-28T16:50:08.581Z,98925.13
2023-03-28T16:52:41.752Z,98918.41
2023-03-28T16:55:17.097Z,98920.44
2023-03-28T16:57:49.857Z,98917.81
2023-03-28T17:00:24.922Z,98921.81
2023-03-28T17:02:57.241Z,98914.56
2023-03-28T17:05:29.700Z,98910.66
2023-03-28T17:08:02.340Z,98903.88
2023-03-28T17:10:38.353Z,98897.22
2023-03-28T17:13:13.264Z,98895.97
2023-03-28T17:15:46.016Z,98892.66
2023-03-28T17:18:18.305Z,98883.38
2023-03-28T17:21:03.628Z,98880.59
2023-03-28T17:23:38.390Z,98884.59
2023-03-28T17:26:12.159Z,98885.78
2023-03-28T17:28:45.000Z,98887.06
2023-03-28T17:31:20.070Z,98885.63
2023-03-28T17:33:52.620Z,98900.00
2023-03-28T17:36:27.997Z,98904.44
2023-03-28T17:39:00.807Z,98914.03
2023-03-28T17:41:32.976Z,98910.75
2023-03-28T17:44:06.971Z,98901.31
2023-03-28T17:46:39.506Z,98897.94
2023-03-28T17:49:11.912Z,98895.34
2023-03-28T17:51:44.952Z,98876.97
2023-03-28T17:54:17.741Z,98875.81
2023-03-28T17:56:49.712Z,98861.28
2023-03-28T17:59:22.684Z,98858.69
2023-03-28T18:01:55.209Z,98863.91
2023-03-28T18:04:28.194Z,98859.94
2023-03-28T18:07:19.540Z,98854.53
2023-03-28T18:09:52.792Z,98853.13
2023-03-28T18:12:25.251Z,98847.25
2023-03-28T18:15:00.353Z,98853.06
2023-03-28T18:17:33.930Z,98849.56
2023-03-28T18:20:08.978Z,98849.59
2023-03-28T18:22:43.281Z,98855.00
2023-03-28T18:25:16.127Z,98847.28
2023-03-28T18:27:48.395Z,98842.78
2023-03-28T18:30:20.358Z,98826.06
2023-03-28T18:32:52.317Z,98827.47
2023-03-28T18:35:25.018Z,98827.31
2023-03-28T18:37:57.459Z,98823.75
2023-03-28T18:40:29.851Z,98821.63
2023-03-28T18:43:02.002Z,98815.59
2023-03-28T18:45:38.271Z,98812.72
2023-03-28T18:48:10.325Z,98813.94
2023-03-28T18:50:42.920Z,98821.09
2023-03-28T18:53:15.287Z,98820.94
2023-03-28T18:55:47.741Z,98823.50
2023-03-28T18:58:19.711Z,98834.03
2023-03-28T19:01:00.555Z,98824.69
2023-03-28T19:03:40.583Z,98828.69
2023-03-28T19:06:15.426Z,98831.47
2023-03-28T19:08:47.513Z,98841.22
2023-03-28T19:11:20.244Z,98854.25
2023-03-28T19:13:52.211Z,98854.81
2023-03-28T19:16:24.569Z,98855.44
2023-03-28T19:18:57.472Z,98858.16
2023-03-28T19:21:30.873Z,98854.34
2023-03-28T19:24:03.272Z,98855.66
2023-03-28T19:26:35.617Z,98864.34
2023-03-28T19:29:07.567Z,98870.81
2023-03-28T19:31:39.826Z,98868.81
2023-03-28T19:34:19.761Z,98862.91
2023-03-28T19:36:52.222Z,98865.38
2023-03-28T19:39:24.155Z,98854.22
2023-03-28T19:41:56.462Z,98856.88
2023-03-28T19:44:28.327Z,98872.66
2023-03-28T19:47:00.809Z,98870.63
2023-03-28T19:49:32.703Z,98858.03
2023-03-28T19:52:05.609Z,98858.03
2023-03-28T19:54:37.693Z,98864.97
2023-03-28T19:57:10.514Z,98859.53
2023-03-28T19:59:42.454Z,98873.31
2023-03-28T20:02:14.699Z,98854.84
2023-03-28T20:04:46.678Z,98825.16
2023-03-28T20:07:21.437Z,98823.09
2023-03-28T20:09:53.444Z,98841.66
2023-03-28T20:12:25.725Z,98833.53
2023-03-28T20:14:57.796Z,98837.94
2023-03-28T20:17:30.900Z,98838.03
2023-03-28T20:20:04.927Z,98834.84
2023-03-28T20:22:38.234Z,98835.44
2023-03-28T20:25:10.943Z,98839.25
2023-03-28T20:27:43.503Z,98847.09
2023-03-28T20:30:15.833Z,98843.81
2023-03-28T20:32:49.721Z,98843.78
2023-03-28T20:35:21.745Z,98845.66
2023-03-28T20:37:54.994Z,98848.16
2023-03-28T20:40:27.463Z,98843.13
2023-03-28T20:43:02.297Z,98853.84
2023-03-28T20:45:35.932Z,98832.19
2023-03-28T20:48:10.922Z,98839.22
2023-03-28T20:50:46.623Z,98827.38
2023-03-28T20:53:18.893Z,98816.25
2023-03-28T20:56:03.995Z,98836.78
2023-03-28T20:58:39.467Z,98843.06
2023-03-28T21:01:13.613Z,98823.38
2023-03-28T21:03:54.853Z,98812.81
2023-03-28T21:06:31.305Z,98803.09
2023-03-28T21:09:25.337Z,98793.88
2023-03-28T21:11:58.025Z,98779.34
2023-03-28T21:14:30.349Z,98771.56
2023-03-28T21:17:07.216Z,98772.69
2023-03-28T21:19:39.491Z,98764.75
2023-03-28T21:22:11.584Z,98759.44
2023-03-28T21:24:43.869Z,98770.47
2023-03-28T21:27:18.299Z,98767.16
2023-03-28T21:29:50.624Z,98761.75
2023-03-28T21:32:22.644Z,98765.09
2023-03-28T21:34:57.656Z,98776.88
2023-03-28T21:37:29.657Z,98799.84
2023-03-28T21:40:01.939Z,98786.78
2023-03-28T21:42:34.968Z,98784.59
2023-03-28T21:45:07.945Z,98776.84
2023-03-28T21:47:42.611Z,98775.63
2023-03-28T21:50:16.581Z,98775.22
2023-03-28T21:52:48.507Z,98783.09
2023-03-28T21:55:20.768Z,98787.00
2023-03-28T21:57:52.675Z,98787.06
2023-03-28T22:00:26.112Z,98778.41
2023-03-28T22:02:58.136Z,98776.97
2023-03-28T22:05:31.159Z,98766.47
2023-03-28T22:08:04.519Z,98767.06
2023-03-28T22:10:37.519Z,98770.38
2023-03-28T22:13:09.585Z,98765.72
2023-03-28T22:15:42.498Z,98755.78
2023-03-28T22:18:15.619Z,98753.09
2023-03-28T22:20:53.575Z,98737.84
2023-03-28T22:23:25.627Z,98716.69
2023-03-28T22:25:58.963Z,98718.00
2023-03-28T22:28:31.632Z,98696.31
2023-03-28T22:31:04.093Z,98686.53
2023-03-28T22:33:36.939Z,98687.13
2023-03-28T22:36:10.224Z,98690.41
2023-03-28T22:38:42.192Z,98704.38
2023-03-28T22:41:14.542Z,98705.59
2023-03-28T22:43:47.001Z,98708.84
2023-03-28T22:46:20.811Z,98704.38
2023-03-28T22:48:58.407Z,98704.31
2023-03-28T22:51:30.929Z,98712.09
2023-03-28T22:54:03.967Z,98722.47
2023-03-28T22:56:35.828Z,98706.66
2023-03-28T22:59:07.728Z,98713.13
2023-03-28T23:01:40.397Z,98719.75
2023-03-28T23:04:12.969Z,98721.84
2023-03-28T23:06:46.138Z,98713.38
2023-03-28T23:09:18.642Z,98711.31
2023-03-28T23:11:51.932Z,98709.19
2023-03-28T23:14:23.903Z,98704.72
2023-03-28T23:16:58.520Z,98712.63
2023-03-28T23:19:31.885Z,98712.09
2023-03-28T23:22:04.629Z,98714.81
2023-03-28T23:24:36.971Z,98710.22
2023-03-28T23:27:09.401Z,98706.34
2023-03-28T23:29:41.943Z,98698.56
2023-03-28T23:32:14.285Z,98705.09
2023-03-28T23:34:46.197Z,98713.72
2023-03-28T23:37:18.458Z,98707.66
2023-03-28T23:39:50.455Z,98711.53
2023-03-28T23:42:24.273Z,98715.41
2023-03-28T23:44:56.138Z,98715.47
2023-03-28T23:47:28.922Z,98706.22
2023-03-28T23:50:00.781Z,98702.91
2023-03-28T23:52:33.364Z,98701.66
2023-03-28T23:55:07.798Z,98704.16
2023-03-28T23:57:40.198Z,98700.81
